sensor_id;sensor_type;location;lat;lon;timestamp;temperature;humidity
48043;DHT22;33988;47.992;8.820;2023-12-04T00:00:35;0.50;48.10
48043;DHT22;33988;47.992;8.820;2023-12-04T00:03:07;0.50;48.10
48043;DHT22;33988;47.992;8.820;2023-12-04T00:05:36;0.50;48.10
48043;DHT22;33988;47.992;8.820;2023-12-04T00:08:05;0.50;48.10
48043;DHT22;33988;47.992;8.820;2023-12-04T00:10:32;0.50;48.00
48043;DHT22;33988;47.992;8.820;2023-12-04T00:12:59;0.50;48.00
48043;DHT22;33988;47.992;8.820;2023-12-04T00:15:26;0.50;48.00
48043;DHT22;33988;47.992;8.820;2023-12-04T00:17:55;0.50;47.90
48043;DHT22;33988;47.992;8.820;2023-12-04T00:20:25;0.50;48.00
48043;DHT22;33988;47.992;8.820;2023-12-04T00:22:55;0.50;48.00
48043;DHT22;33988;47.992;8.820;2023-12-04T00:25:22;0.40;48.00
48043;DHT22;33988;47.992;8.820;2023-12-04T00:27:51;0.40;48.00
48043;DHT22;33988;47.992;8.820;2023-12-04T00:30:18;0.40;48.00
48043;DHT22;33988;47.992;8.820;2023-12-04T00:32:47;0.40;48.00
48043;DHT22;33988;47.992;8.820;2023-12-04T00:35:14;0.40;48.00
48043;DHT22;33988;47.992;8.820;2023-12-04T00:37:41;0.40;48.00
48043;DHT22;33988;47.992;8.820;2023-12-04T00:40:08;0.40;48.00
48043;DHT22;33988;47.992;8.820;2023-12-04T00:42:36;0.40;48.00
48043;DHT22;33988;47.992;8.820;2023-12-04T00:45:03;0.40;48.00
48043;DHT22;33988;47.992;8.820;2023-12-04T00:47:31;0.40;48.10
48043;DHT22;33988;47.992;8.820;2023-12-04T00:49:58;0.40;48.00
48043;DHT22;33988;47.992;8.820;2023-12-04T00:52:25;0.40;48.10
48043;DHT22;33988;47.992;8.820;2023-12-04T00:54:54;0.40;48.10
48043;DHT22;33988;47.992;8.820;2023-12-04T00:57:24;0.40;48.10
48043;DHT22;33988;47.992;8.820;2023-12-04T00:59:51;0.40;48.10
48043;DHT22;33988;47.992;8.820;2023-12-04T01:02:20;0.40;48.10
48043;DHT22;33988;47.992;8.820;2023-12-04T01:04:49;0.40;48.10
48043;DHT22;33988;47.992;8.820;2023-12-04T01:07:16;0.40;48.10
48043;DHT22;33988;47.992;8.820;2023-12-04T01:09:43;0.40;48.10
48043;DHT22;33988;47.992;8.820;2023-12-04T01:12:10;0.40;48.10
48043;DHT22;33988;47.992;8.820;2023-12-04T01:14:37;0.40;48.00
48043;DHT22;33988;47.992;8.820;2023-12-04T01:17:07;0.40;48.00
48043;DHT22;33988;47.992;8.820;2023-12-04T01:19:36;0.40;48.00
48043;DHT22;33988;47.992;8.820;2023-12-04T01:22:03;0.40;47.90
48043;DHT22;33988;47.992;8.820;2023-12-04T01:24:33;0.30;47.80
48043;DHT22;33988;47.992;8.820;2023-12-04T01:27:00;0.30;47.80
48043;DHT22;33988;47.992;8.820;2023-12-04T01:29:27;0.30;47.80
48043;DHT22;33988;47.992;8.820;2023-12-04T01:31:53;0.30;47.80
48043;DHT22;33988;47.992;8.820;2023-12-04T01:34:23;0.30;47.80
48043;DHT22;33988;47.992;8.820;2023-12-04T01:36:50;0.30;47.80
48043;DHT22;33988;47.992;8.820;2023-12-04T01:39:17;0.30;47.90
48043;DHT22;33988;47.992;8.820;2023-12-04T01:41:44;0.30;47.80
48043;DHT22;33988;47.992;8.820;2023-12-04T01:44:13;0.30;47.80
48043;DHT22;33988;47.992;8.820;2023-12-04T01:46:46;0.30;47.80
48043;DHT22;33988;47.992;8.820;2023-12-04T01:49:14;0.20;47.70
48043;DHT22;33988;47.992;8.820;2023-12-04T01:51:44;0.20;47.80
48043;DHT22;33988;47.992;8.820;2023-12-04T01:54:14;0.20;47.70
48043;DHT22;33988;47.992;8.820;2023-12-04T01:56:44;0.20;47.80
48043;DHT22;33988;47.992;8.820;2023-12-04T01:59:11;0.10;47.80
48043;DHT22;33988;47.992;8.820;2023-12-04T02:01:39;0.10;47.80
48043;DHT22;33988;47.992;8.820;2023-12-04T02:04:09;0.10;47.80
48043;DHT22;33988;47.992;8.820;2023-12-04T02:06:36;0.10;47.80
48043;DHT22;33988;47.992;8.820;2023-12-04T02:09:03;0.10;47.80
48043;DHT22;33988;47.992;8.820;2023-12-04T02:11:33;0.10;47.90
48043;DHT22;33988;47.992;8.820;2023-12-04T02:14:00;0.10;47.80
48043;DHT22;33988;47.992;8.820;2023-12-04T02:16:28;0.10;47.90
48043;DHT22;33988;47.992;8.820;2023-12-04T02:18:55;0.10;47.90
48043;DHT22;33988;47.992;8.820;2023-12-04T02:21:25;0.10;47.90
48043;DHT22;33988;47.992;8.820;2023-12-04T02:23:54;0.10;47.80
48043;DHT22;33988;47.992;8.820;2023-12-04T02:26:32;0.10;47.80
48043;DHT22;33988;47.992;8.820;2023-12-04T02:29:10;0.10;47.80
48043;DHT22;33988;47.992;8.820;2023-12-04T02:31:46;0.00;47.70
48043;DHT22;33988;47.992;8.820;2023-12-04T02:34:16;0.10;47.80
48043;DHT22;33988;47.992;8.820;2023-12-04T02:36:47;0.00;47.80
48043;DHT22;33988;47.992;8.820;2023-12-04T02:39:14;0.00;47.80
48043;DHT22;33988;47.992;8.820;2023-12-04T02:41:41;0.00;47.80
48043;DHT22;33988;47.992;8.820;2023-12-04T02:44:08;0.00;47.90
48043;DHT22;33988;47.992;8.820;2023-12-04T02:46:35;0.00;47.90
48043;DHT22;33988;47.992;8.820;2023-12-04T02:49:02;0.00;47.90
48043;DHT22;33988;47.992;8.820;2023-12-04T02:51:29;0.00;47.80
48043;DHT22;33988;47.992;8.820;2023-12-04T02:53:56;0.00;47.80
48043;DHT22;33988;47.992;8.820;2023-12-04T02:56:23;0.00;47.80
48043;DHT22;33988;47.992;8.820;2023-12-04T02:58:53;0.00;47.90
48043;DHT22;33988;47.992;8.820;2023-12-04T03:01:20;0.00;47.90
48043;DHT22;33988;47.992;8.820;2023-12-04T03:03:47;0.00;47.90
48043;DHT22;33988;47.992;8.820;2023-12-04T03:06:16;0.00;47.90
48043;DHT22;33988;47.992;8.820;2023-12-04T03:08:44;0.00;48.00
48043;DHT22;33988;47.992;8.820;2023-12-04T03:11:13;0.00;48.00
48043;DHT22;33988;47.992;8.820;2023-12-04T03:13:40;0.00;48.00
48043;DHT22;33988;47.992;8.820;2023-12-04T03:16:15;0.00;48.10
48043;DHT22;33988;47.992;8.820;2023-12-04T03:18:45;0.00;48.00
48043;DHT22;33988;47.992;8.820;2023-12-04T03:21:14;0.00;48.70
48043;DHT22;33988;47.992;8.820;2023-12-04T03:23:44;0.00;48.00
48043;DHT22;33988;47.992;8.820;2023-12-04T03:26:11;0.00;48.00
48043;DHT22;33988;47.992;8.820;2023-12-04T03:28:41;0.00;48.00
48043;DHT22;33988;47.992;8.820;2023-12-04T03:31:08;0.00;48.60
48043;DHT22;33988;47.992;8.820;2023-12-04T03:33:35;0.00;48.00
48043;DHT22;33988;47.992;8.820;2023-12-04T03:36:02;0.00;48.00
48043;DHT22;33988;47.992;8.820;2023-12-04T03:38:30;0.00;48.00
48043;DHT22;33988;47.992;8.820;2023-12-04T03:40:59;0.00;48.10
48043;DHT22;33988;47.992;8.820;2023-12-04T03:43:28;0.00;48.10
48043;DHT22;33988;47.992;8.820;2023-12-04T03:45:55;0.00;48.00
48043;DHT22;33988;47.992;8.820;2023-12-04T03:48:22;0.00;48.10
48043;DHT22;33988;47.992;8.820;2023-12-04T03:50:52;0.00;48.10
48043;DHT22;33988;47.992;8.820;2023-12-04T03:53:21;0.10;48.10
48043;DHT22;33988;47.992;8.820;2023-12-04T03:55:48;0.10;48.20
48043;DHT22;33988;47.992;8.820;2023-12-04T03:58:17;0.00;48.10
48043;DHT22;33988;47.992;8.820;2023-12-04T04:00:44;0.10;48.10
48043;DHT22;33988;47.992;8.820;2023-12-04T04:03:11;0.10;48.10
48043;DHT22;33988;47.992;8.820;2023-12-04T04:05:38;0.10;48.10
48043;DHT22;33988;47.992;8.820;2023-12-04T04:08:05;0.10;48.10
48043;DHT22;33988;47.992;8.820;2023-12-04T04:10:36;0.10;48.10
48043;DHT22;33988;47.992;8.820;2023-12-04T04:13:03;0.10;48.20
48043;DHT22;33988;47.992;8.820;2023-12-04T04:15:32;0.10;48.20
48043;DHT22;33988;47.992;8.820;2023-12-04T04:17:59;0.20;48.20
48043;DHT22;33988;47.992;8.820;2023-12-04T04:20:31;0.10;48.20
48043;DHT22;33988;47.992;8.820;2023-12-04T04:23:03;0.20;48.20
48043;DHT22;33988;47.992;8.820;2023-12-04T04:25:30;0.10;48.20
48043;DHT22;33988;47.992;8.820;2023-12-04T04:27:57;0.20;48.30
48043;DHT22;33988;47.992;8.820;2023-12-04T04:30:24;0.20;48.30
48043;DHT22;33988;47.992;8.820;2023-12-04T04:32:51;0.20;48.20
48043;DHT22;33988;47.992;8.820;2023-12-04T04:35:18;0.20;48.20
48043;DHT22;33988;47.992;8.820;2023-12-04T04:37:47;0.20;48.20
48043;DHT22;33988;47.992;8.820;2023-12-04T04:40:17;0.20;48.20
48043;DHT22;33988;47.992;8.820;2023-12-04T04:42:44;0.20;48.10
48043;DHT22;33988;47.992;8.820;2023-12-04T04:45:17;0.20;48.10
48043;DHT22;33988;47.992;8.820;2023-12-04T04:47:48;0.20;48.00
48043;DHT22;33988;47.992;8.820;2023-12-04T04:50:20;0.20;48.00
48043;DHT22;33988;47.992;8.820;2023-12-04T04:52:49;0.20;48.10
48043;DHT22;33988;47.992;8.820;2023-12-04T04:55:16;0.20;48.10
48043;DHT22;33988;47.992;8.820;2023-12-04T04:58:03;0.20;48.10
48043;DHT22;33988;47.992;8.820;2023-12-04T05:00:30;0.20;48.20
48043;DHT22;33988;47.992;8.820;2023-12-04T05:02:58;0.20;48.20
48043;DHT22;33988;47.992;8.820;2023-12-04T05:05:27;0.20;48.30
48043;DHT22;33988;47.992;8.820;2023-12-04T05:07:54;0.20;48.40
48043;DHT22;33988;47.992;8.820;2023-12-04T05:10:21;0.20;48.40
48043;DHT22;33988;47.992;8.820;2023-12-04T05:12:48;0.30;48.50
48043;DHT22;33988;47.992;8.820;2023-12-04T05:15:15;0.30;48.50
48043;DHT22;33988;47.992;8.820;2023-12-04T05:17:42;0.30;48.60
48043;DHT22;33988;47.992;8.820;2023-12-04T05:20:13;0.30;48.60
48043;DHT22;33988;47.992;8.820;2023-12-04T05:22:43;0.30;48.60
48043;DHT22;33988;47.992;8.820;2023-12-04T05:25:12;0.30;48.60
48043;DHT22;33988;47.992;8.820;2023-12-04T05:27:42;0.30;48.60
48043;DHT22;33988;47.992;8.820;2023-12-04T05:30:18;0.40;48.60
48043;DHT22;33988;47.992;8.820;2023-12-04T05:32:45;0.40;48.60
48043;DHT22;33988;47.992;8.820;2023-12-04T05:35:12;0.40;48.60
48043;DHT22;33988;47.992;8.820;2023-12-04T05:37:43;0.40;48.70
48043;DHT22;33988;47.992;8.820;2023-12-04T05:40:11;0.40;48.70
48043;DHT22;33988;47.992;8.820;2023-12-04T05:42:41;0.50;48.80
48043;DHT22;33988;47.992;8.820;2023-12-04T05:45:08;0.50;48.80
48043;DHT22;33988;47.992;8.820;2023-12-04T05:47:40;0.50;48.80
48043;DHT22;33988;47.992;8.820;2023-12-04T05:50:10;0.50;48.80
48043;DHT22;33988;47.992;8.820;2023-12-04T05:52:37;0.50;48.80
48043;DHT22;33988;47.992;8.820;2023-12-04T05:55:06;0.60;48.80
48043;DHT22;33988;47.992;8.820;2023-12-04T05:57:34;0.60;48.80
48043;DHT22;33988;47.992;8.820;2023-12-04T06:00:04;0.60;48.80
48043;DHT22;33988;47.992;8.820;2023-12-04T06:02:41;0.60;48.80
48043;DHT22;33988;47.992;8.820;2023-12-04T06:05:11;0.60;48.80
48043;DHT22;33988;47.992;8.820;2023-12-04T06:07:41;0.60;48.80
48043;DHT22;33988;47.992;8.820;2023-12-04T06:10:11;0.60;48.80
48043;DHT22;33988;47.992;8.820;2023-12-04T06:12:38;0.60;48.70
48043;DHT22;33988;47.992;8.820;2023-12-04T06:15:09;0.70;48.80
48043;DHT22;33988;47.992;8.820;2023-12-04T06:17:36;0.70;48.90
48043;DHT22;33988;47.992;8.820;2023-12-04T06:20:04;0.70;48.90
48043;DHT22;33988;47.992;8.820;2023-12-04T06:22:33;0.70;48.90
48043;DHT22;33988;47.992;8.820;2023-12-04T06:25:00;0.70;48.90
48043;DHT22;33988;47.992;8.820;2023-12-04T06:27:28;0.70;48.90
48043;DHT22;33988;47.992;8.820;2023-12-04T06:29:55;0.70;48.90
48043;DHT22;33988;47.992;8.820;2023-12-04T06:32:22;0.80;48.90
48043;DHT22;33988;47.992;8.820;2023-12-04T06:34:54;0.80;49.00
48043;DHT22;33988;47.992;8.820;2023-12-04T06:37:22;0.80;49.00
48043;DHT22;33988;47.992;8.820;2023-12-04T06:39:53;0.80;48.90
48043;DHT22;33988;47.992;8.820;2023-12-04T06:42:20;0.80;49.00
48043;DHT22;33988;47.992;8.820;2023-12-04T06:44:58;0.80;49.00
48043;DHT22;33988;47.992;8.820;2023-12-04T06:47:25;0.90;49.00
48043;DHT22;33988;47.992;8.820;2023-12-04T06:49:56;0.90;49.10
48043;DHT22;33988;47.992;8.820;2023-12-04T06:52:25;0.90;49.10
48043;DHT22;33988;47.992;8.820;2023-12-04T06:54:52;0.90;49.10
48043;DHT22;33988;47.992;8.820;2023-12-04T06:57:22;0.90;49.10
48043;DHT22;33988;47.992;8.820;2023-12-04T06:59:49;1.00;49.10
48043;DHT22;33988;47.992;8.820;2023-12-04T07:02:20;1.00;49.10
48043;DHT22;33988;47.992;8.820;2023-12-04T07:04:50;1.00;49.00
48043;DHT22;33988;47.992;8.820;2023-12-04T07:07:17;1.00;49.00
48043;DHT22;33988;47.992;8.820;2023-12-04T07:09:49;1.00;49.10
48043;DHT22;33988;47.992;8.820;2023-12-04T07:12:16;1.00;49.10
48043;DHT22;33988;47.992;8.820;2023-12-04T07:14:43;1.00;49.10
48043;DHT22;33988;47.992;8.820;2023-12-04T07:17:10;1.10;49.20
48043;DHT22;33988;47.992;8.820;2023-12-04T07:19:38;1.10;49.20
48043;DHT22;33988;47.992;8.820;2023-12-04T07:22:08;1.10;49.20
48043;DHT22;33988;47.992;8.820;2023-12-04T07:24:35;1.10;49.20
48043;DHT22;33988;47.992;8.820;2023-12-04T07:27:09;1.10;49.20
48043;DHT22;33988;47.992;8.820;2023-12-04T07:29:36;1.20;49.20
48043;DHT22;33988;47.992;8.820;2023-12-04T07:32:05;1.20;49.20
48043;DHT22;33988;47.992;8.820;2023-12-04T07:34:32;1.20;49.20
48043;DHT22;33988;47.992;8.820;2023-12-04T07:37:04;1.20;49.30
48043;DHT22;33988;47.992;8.820;2023-12-04T07:39:31;1.20;49.30
48043;DHT22;33988;47.992;8.820;2023-12-04T07:42:01;1.20;49.30
48043;DHT22;33988;47.992;8.820;2023-12-04T07:44:38;1.20;49.30
48043;DHT22;33988;47.992;8.820;2023-12-04T07:47:05;1.30;49.30
48043;DHT22;33988;47.992;8.820;2023-12-04T07:49:35;1.30;49.30
48043;DHT22;33988;47.992;8.820;2023-12-04T07:52:05;1.30;49.30
48043;DHT22;33988;47.992;8.820;2023-12-04T07:54:35;1.30;49.30
48043;DHT22;33988;47.992;8.820;2023-12-04T07:57:02;1.30;49.30
48043;DHT22;33988;47.992;8.820;2023-12-04T07:59:31;1.30;49.30
48043;DHT22;33988;47.992;8.820;2023-12-04T08:02:01;1.40;49.40
48043;DHT22;33988;47.992;8.820;2023-12-04T08:04:28;1.40;49.40
48043;DHT22;33988;47.992;8.820;2023-12-04T08:06:55;1.40;49.40
48043;DHT22;33988;47.992;8.820;2023-12-04T08:09:25;1.40;49.30
48043;DHT22;33988;47.992;8.820;2023-12-04T08:11:52;1.40;49.40
48043;DHT22;33988;47.992;8.820;2023-12-04T08:14:22;1.40;49.40
48043;DHT22;33988;47.992;8.820;2023-12-04T08:16:52;1.40;49.40
48043;DHT22;33988;47.992;8.820;2023-12-04T08:19:19;1.50;49.50
48043;DHT22;33988;47.992;8.820;2023-12-04T08:21:46;1.50;49.50
48043;DHT22;33988;47.992;8.820;2023-12-04T08:24:13;1.50;49.50
48043;DHT22;33988;47.992;8.820;2023-12-04T08:26:40;1.50;49.50
48043;DHT22;33988;47.992;8.820;2023-12-04T08:29:07;1.60;49.60
48043;DHT22;33988;47.992;8.820;2023-12-04T08:31:34;1.60;49.60
48043;DHT22;33988;47.992;8.820;2023-12-04T08:34:03;1.60;49.60
48043;DHT22;33988;47.992;8.820;2023-12-04T08:36:30;1.70;49.60
48043;DHT22;33988;47.992;8.820;2023-12-04T08:39:12;1.70;49.60
48043;DHT22;33988;47.992;8.820;2023-12-04T08:41:45;1.70;49.60
48043;DHT22;33988;47.992;8.820;2023-12-04T08:44:27;1.70;49.60
48043;DHT22;33988;47.992;8.820;2023-12-04T08:46:56;1.80;49.70
48043;DHT22;33988;47.992;8.820;2023-12-04T08:49:25;1.80;49.70
48043;DHT22;33988;47.992;8.820;2023-12-04T08:52:08;1.80;49.70
48043;DHT22;33988;47.992;8.820;2023-12-04T08:54:42;1.80;49.70
48043;DHT22;33988;47.992;8.820;2023-12-04T08:57:11;1.90;49.70
48043;DHT22;33988;47.992;8.820;2023-12-04T08:59:41;1.90;49.70
48043;DHT22;33988;47.992;8.820;2023-12-04T09:02:08;1.90;49.70
48043;DHT22;33988;47.992;8.820;2023-12-04T09:04:38;2.00;49.80
48043;DHT22;33988;47.992;8.820;2023-12-04T09:07:09;2.00;49.70
48043;DHT22;33988;47.992;8.820;2023-12-04T09:09:56;2.00;49.80
48043;DHT22;33988;47.992;8.820;2023-12-04T09:12:23;2.00;49.80
48043;DHT22;33988;47.992;8.820;2023-12-04T09:14:55;2.00;49.80
48043;DHT22;33988;47.992;8.820;2023-12-04T09:17:24;2.00;49.80
48043;DHT22;33988;47.992;8.820;2023-12-04T09:19:58;2.10;49.80
48043;DHT22;33988;47.992;8.820;2023-12-04T09:22:25;2.10;49.90
48043;DHT22;33988;47.992;8.820;2023-12-04T09:24:59;2.10;49.80
48043;DHT22;33988;47.992;8.820;2023-12-04T09:27:26;2.10;49.80
48043;DHT22;33988;47.992;8.820;2023-12-04T09:29:56;2.20;49.90
48043;DHT22;33988;47.992;8.820;2023-12-04T09:32:25;2.20;50.00
48043;DHT22;33988;47.992;8.820;2023-12-04T09:34:52;2.20;50.00
48043;DHT22;33988;47.992;8.820;2023-12-04T09:37:19;2.30;50.00
48043;DHT22;33988;47.992;8.820;2023-12-04T09:39:51;2.30;50.00
48043;DHT22;33988;47.992;8.820;2023-12-04T09:42:22;2.30;50.10
48043;DHT22;33988;47.992;8.820;2023-12-04T09:44:59;2.30;50.10
48043;DHT22;33988;47.992;8.820;2023-12-04T09:47:32;2.40;50.10
48043;DHT22;33988;47.992;8.820;2023-12-04T09:50:03;2.40;50.10
48043;DHT22;33988;47.992;8.820;2023-12-04T09:52:34;2.40;50.10
48043;DHT22;33988;47.992;8.820;2023-12-04T09:55:04;2.40;50.10
48043;DHT22;33988;47.992;8.820;2023-12-04T09:57:39;2.40;50.10
48043;DHT22;33988;47.992;8.820;2023-12-04T10:00:09;2.50;50.20
48043;DHT22;33988;47.992;8.820;2023-12-04T10:02:37;2.50;50.20
48043;DHT22;33988;47.992;8.820;2023-12-04T10:05:05;2.60;50.30
48043;DHT22;33988;47.992;8.820;2023-12-04T10:07:35;2.60;50.40
48043;DHT22;33988;47.992;8.820;2023-12-04T10:10:04;2.60;50.40
48043;DHT22;33988;47.992;8.820;2023-12-04T10:12:32;2.70;50.40
48043;DHT22;33988;47.992;8.820;2023-12-04T10:17:34;2.70;50.40
48043;DHT22;33988;47.992;8.820;2023-12-04T10:20:09;2.60;50.50
48043;DHT22;33988;47.992;8.820;2023-12-04T10:23:03;2.80;50.60
48043;DHT22;33988;47.992;8.820;2023-12-04T10:25:34;2.80;50.50
48043;DHT22;33988;47.992;8.820;2023-12-04T10:28:12;2.90;50.50
48043;DHT22;33988;47.992;8.820;2023-12-04T10:30:40;2.90;50.60
48043;DHT22;33988;47.992;8.820;2023-12-04T10:33:09;3.00;50.60
48043;DHT22;33988;47.992;8.820;2023-12-04T10:35:39;3.00;50.50
48043;DHT22;33988;47.992;8.820;2023-12-04T10:38:10;2.90;50.50
48043;DHT22;33988;47.992;8.820;2023-12-04T10:40:37;3.00;51.20
48043;DHT22;33988;47.992;8.820;2023-12-04T10:45:49;3.10;50.60
48043;DHT22;33988;47.992;8.820;2023-12-04T10:48:18;3.20;50.60
48043;DHT22;33988;47.992;8.820;2023-12-04T10:50:47;3.20;50.60
48043;DHT22;33988;47.992;8.820;2023-12-04T10:53:16;3.20;50.70
48043;DHT22;33988;47.992;8.820;2023-12-04T10:55:44;3.30;50.80
48043;DHT22;33988;47.992;8.820;2023-12-04T10:58:13;3.30;50.80
48043;DHT22;33988;47.992;8.820;2023-12-04T11:00:48;3.30;50.80
48043;DHT22;33988;47.992;8.820;2023-12-04T11:03:43;3.40;50.90
48043;DHT22;33988;47.992;8.820;2023-12-04T11:06:12;3.40;50.90
48043;DHT22;33988;47.992;8.820;2023-12-04T11:08:50;3.50;51.00
48043;DHT22;33988;47.992;8.820;2023-12-04T11:11:26;3.50;51.00
48043;DHT22;33988;47.992;8.820;2023-12-04T11:13:58;3.60;51.00
48043;DHT22;33988;47.992;8.820;2023-12-04T11:16:41;3.60;51.00
48043;DHT22;33988;47.992;8.820;2023-12-04T11:22:11;3.70;51.10
48043;DHT22;33988;47.992;8.820;2023-12-04T11:24:41;3.80;51.30
48043;DHT22;33988;47.992;8.820;2023-12-04T11:27:13;3.80;51.30
48043;DHT22;33988;47.992;8.820;2023-12-04T11:29:42;3.90;52.00
48043;DHT22;33988;47.992;8.820;2023-12-04T11:32:19;3.90;51.30
48043;DHT22;33988;47.992;8.820;2023-12-04T11:34:54;4.00;51.40
48043;DHT22;33988;47.992;8.820;2023-12-04T11:37:22;4.10;51.50
48043;DHT22;33988;47.992;8.820;2023-12-04T11:39:54;4.10;51.40
48043;DHT22;33988;47.992;8.820;2023-12-04T11:42:24;4.20;51.50
48043;DHT22;33988;47.992;8.820;2023-12-04T11:44:58;4.20;51.50
48043;DHT22;33988;47.992;8.820;2023-12-04T11:47:28;4.20;51.40
48043;DHT22;33988;47.992;8.820;2023-12-04T11:50:02;4.30;51.40
48043;DHT22;33988;47.992;8.820;2023-12-04T11:52:37;4.30;51.40
48043;DHT22;33988;47.992;8.820;2023-12-04T11:55:04;4.40;51.40
48043;DHT22;33988;47.992;8.820;2023-12-04T11:57:37;4.40;51.50
48043;DHT22;33988;47.992;8.820;2023-12-04T12:05:41;4.50;51.70
48043;DHT22;33988;47.992;8.820;2023-12-04T12:08:11;4.50;51.70
48043;DHT22;33988;47.992;8.820;2023-12-04T12:10:38;4.50;51.70
48043;DHT22;33988;47.992;8.820;2023-12-04T12:13:05;4.60;51.70
48043;DHT22;33988;47.992;8.820;2023-12-04T12:15:33;4.60;51.70
48043;DHT22;33988;47.992;8.820;2023-12-04T12:18:01;4.70;51.70
48043;DHT22;33988;47.992;8.820;2023-12-04T12:20:31;4.70;52.30
48043;DHT22;33988;47.992;8.820;2023-12-04T12:23:01;4.80;51.70
48043;DHT22;33988;47.992;8.820;2023-12-04T12:25:28;4.80;51.60
48043;DHT22;33988;47.992;8.820;2023-12-04T12:27:55;4.80;51.70
48043;DHT22;33988;47.992;8.820;2023-12-04T12:30:23;4.90;51.70
48043;DHT22;33988;47.992;8.820;2023-12-04T12:32:50;4.90;51.70
48043;DHT22;33988;47.992;8.820;2023-12-04T12:35:20;4.90;51.70
48043;DHT22;33988;47.992;8.820;2023-12-04T12:37:47;4.90;51.70
48043;DHT22;33988;47.992;8.820;2023-12-04T12:40:23;5.00;51.70
48043;DHT22;33988;47.992;8.820;2023-12-04T12:42:54;5.00;51.70
48043;DHT22;33988;47.992;8.820;2023-12-04T12:45:44;5.00;51.70
48043;DHT22;33988;47.992;8.820;2023-12-04T12:48:15;5.00;51.70
48043;DHT22;33988;47.992;8.820;2023-12-04T12:50:46;5.10;51.70
48043;DHT22;33988;47.992;8.820;2023-12-04T12:53:14;5.10;51.80
48043;DHT22;33988;47.992;8.820;2023-12-04T12:55:45;5.10;51.80
48043;DHT22;33988;47.992;8.820;2023-12-04T12:58:16;5.10;51.90
48043;DHT22;33988;47.992;8.820;2023-12-04T13:00:47;5.10;51.90
48043;DHT22;33988;47.992;8.820;2023-12-04T13:03:19;5.20;52.00
48043;DHT22;33988;47.992;8.820;2023-12-04T13:05:47;5.10;52.00
48043;DHT22;33988;47.992;8.820;2023-12-04T13:08:14;5.20;52.10
48043;DHT22;33988;47.992;8.820;2023-12-04T13:10:42;5.20;52.10
48043;DHT22;33988;47.992;8.820;2023-12-04T13:13:14;5.20;52.10
48043;DHT22;33988;47.992;8.820;2023-12-04T13:15:43;5.30;52.20
48043;DHT22;33988;47.992;8.820;2023-12-04T13:18:10;5.30;52.10
48043;DHT22;33988;47.992;8.820;2023-12-04T13:20:37;5.30;52.20
48043;DHT22;33988;47.992;8.820;2023-12-04T13:23:06;5.30;52.10
48043;DHT22;33988;47.992;8.820;2023-12-04T13:25:34;5.40;52.20
48043;DHT22;33988;47.992;8.820;2023-12-04T13:28:01;5.40;52.20
48043;DHT22;33988;47.992;8.820;2023-12-04T13:30:28;5.40;52.20
48043;DHT22;33988;47.992;8.820;2023-12-04T13:32:58;5.40;52.20
48043;DHT22;33988;47.992;8.820;2023-12-04T13:35:25;5.40;52.20
48043;DHT22;33988;47.992;8.820;2023-12-04T13:37:52;5.50;52.30
48043;DHT22;33988;47.992;8.820;2023-12-04T13:40:25;5.50;52.30
48043;DHT22;33988;47.992;8.820;2023-12-04T13:42:59;5.50;52.30
48043;DHT22;33988;47.992;8.820;2023-12-04T13:45:44;5.50;52.30
48043;DHT22;33988;47.992;8.820;2023-12-04T13:48:11;5.50;52.30
48043;DHT22;33988;47.992;8.820;2023-12-04T13:50:43;5.60;52.40
48043;DHT22;33988;47.992;8.820;2023-12-04T13:53:10;5.60;52.40
48043;DHT22;33988;47.992;8.820;2023-12-04T13:55:39;5.60;52.40
48043;DHT22;33988;47.992;8.820;2023-12-04T13:58:14;5.60;52.40
48043;DHT22;33988;47.992;8.820;2023-12-04T14:01:02;5.70;52.40
48043;DHT22;33988;47.992;8.820;2023-12-04T14:03:43;5.70;52.40
48043;DHT22;33988;47.992;8.820;2023-12-04T14:06:11;5.70;52.50
48043;DHT22;33988;47.992;8.820;2023-12-04T14:08:39;5.70;52.50
48043;DHT22;33988;47.992;8.820;2023-12-04T14:11:06;5.70;52.50
48043;DHT22;33988;47.992;8.820;2023-12-04T14:13:37;5.70;52.50
48043;DHT22;33988;47.992;8.820;2023-12-04T14:16:08;5.80;53.20
48043;DHT22;33988;47.992;8.820;2023-12-04T14:18:36;5.70;52.50
48043;DHT22;33988;47.992;8.820;2023-12-04T14:21:03;5.80;52.60
48043;DHT22;33988;47.992;8.820;2023-12-04T14:23:34;5.80;52.60
48043;DHT22;33988;47.992;8.820;2023-12-04T14:26:01;5.80;52.60
48043;DHT22;33988;47.992;8.820;2023-12-04T14:28:28;5.80;52.60
48043;DHT22;33988;47.992;8.820;2023-12-04T14:31:07;5.80;52.60
48043;DHT22;33988;47.992;8.820;2023-12-04T14:33:34;5.90;52.60
48043;DHT22;33988;47.992;8.820;2023-12-04T14:36:09;5.90;52.60
48043;DHT22;33988;47.992;8.820;2023-12-04T14:38:38;5.90;52.60
48043;DHT22;33988;47.992;8.820;2023-12-04T14:41:06;5.90;52.60
48043;DHT22;33988;47.992;8.820;2023-12-04T14:43:36;5.90;52.60
48043;DHT22;33988;47.992;8.820;2023-12-04T14:46:04;5.90;52.60
48043;DHT22;33988;47.992;8.820;2023-12-04T14:48:32;5.90;52.60
48043;DHT22;33988;47.992;8.820;2023-12-04T14:51:01;6.00;52.60
48043;DHT22;33988;47.992;8.820;2023-12-04T14:53:33;6.00;52.60
48043;DHT22;33988;47.992;8.820;2023-12-04T14:56:17;6.00;52.70
48043;DHT22;33988;47.992;8.820;2023-12-04T14:59:03;6.00;52.70
48043;DHT22;33988;47.992;8.820;2023-12-04T15:01:33;6.00;52.70
48043;DHT22;33988;47.992;8.820;2023-12-04T15:04:05;6.00;52.70
48043;DHT22;33988;47.992;8.820;2023-12-04T15:06:53;6.00;52.70
48043;DHT22;33988;47.992;8.820;2023-12-04T15:09:32;6.00;52.80
48043;DHT22;33988;47.992;8.820;2023-12-04T15:12:05;6.00;52.80
48043;DHT22;33988;47.992;8.820;2023-12-04T15:14:48;6.00;52.80
48043;DHT22;33988;47.992;8.820;2023-12-04T15:17:41;6.00;52.80
48043;DHT22;33988;47.992;8.820;2023-12-04T15:20:17;6.00;52.70
48043;DHT22;33988;47.992;8.820;2023-12-04T15:22:59;6.00;52.70
48043;DHT22;33988;47.992;8.820;2023-12-04T15:25:29;6.00;52.70
48043;DHT22;33988;47.992;8.820;2023-12-04T15:27:59;6.00;52.70
48043;DHT22;33988;47.992;8.820;2023-12-04T15:30:30;6.00;52.70
48043;DHT22;33988;47.992;8.820;2023-12-04T15:32:57;6.00;52.80
48043;DHT22;33988;47.992;8.820;2023-12-04T15:35:25;6.00;52.80
48043;DHT22;33988;47.992;8.820;2023-12-04T15:37:55;6.00;52.80
48043;DHT22;33988;47.992;8.820;2023-12-04T15:40:24;6.10;52.80
48043;DHT22;33988;47.992;8.820;2023-12-04T15:42:52;6.00;52.80
48043;DHT22;33988;47.992;8.820;2023-12-04T15:45:19;6.10;52.90
48043;DHT22;33988;47.992;8.820;2023-12-04T15:47:51;6.10;52.90
48043;DHT22;33988;47.992;8.820;2023-12-04T15:50:18;6.00;52.80
48043;DHT22;33988;47.992;8.820;2023-12-04T15:52:46;6.10;52.90
48043;DHT22;33988;47.992;8.820;2023-12-04T15:55:16;6.10;52.80
48043;DHT22;33988;47.992;8.820;2023-12-04T15:57:43;6.10;52.80
48043;DHT22;33988;47.992;8.820;2023-12-04T16:00:13;6.10;52.80
48043;DHT22;33988;47.992;8.820;2023-12-04T16:02:42;6.10;52.80
48043;DHT22;33988;47.992;8.820;2023-12-04T16:05:09;6.10;52.90
48043;DHT22;33988;47.992;8.820;2023-12-04T16:07:38;6.10;52.80
48043;DHT22;33988;47.992;8.820;2023-12-04T16:10:05;6.10;52.90
48043;DHT22;33988;47.992;8.820;2023-12-04T16:12:37;6.10;52.90
48043;DHT22;33988;47.992;8.820;2023-12-04T16:15:06;6.10;52.90